Time;durP1;ratioP1;P1;durP2;ratioP2;P2;SDS_P1;SDS_P2;PMS_P1;PMS_P2;Temp;Humidity;BMP_temperature;BMP_pressure;BME280_temperature;BME280_humidity;BME280_pressure;Samples;Min_cycle;Max_cycle;Signal;HPM_P1;HPM_P2
2024/01/12 00:00:08;;;;;;;64.25;21.77;;;;;;;;;;5038574;28;20476;-68
2024/01/12 00:02:34;;;;;;;66.18;22.30;;;;;;;;;;5031081;28;20539;-68
2024/01/12 00:04:59;;;;;;;73.32;23.10;;;;;;;;;;5030467;28;20025;-68
2024/01/12 00:07:24;;;;;;;70.68;22.88;;;;;;;;;;5031142;28;20427;-68
2024/01/12 00:09:49;;;;;;;66.95;23.65;;;;;;;;;;5037104;28;20594;-68
2024/01/12 00:12:14;;;;;;;57.58;22.73;;;;;;;;;;5030837;28;20013;-68
2024/01/12 00:14:40;;;;;;;59.80;21.45;;;;;;;;;;5038392;28;20378;-68
2024/01/12 00:17:05;;;;;;;65.85;23.50;;;;;;;;;;5030130;28;20087;-68
2024/01/12 00:19:30;;;;;;;59.38;22.15;;;;;;;;;;5030681;28;20026;-68
2024/01/12 00:21:55;;;;;;;61.13;20.50;;;;;;;;;;5030416;28;20080;-68
2024/01/12 00:24:20;;;;;;;59.25;22.23;;;;;;;;;;5029835;28;20017;-68
2024/01/12 00:26:46;;;;;;;59.72;22.38;;;;;;;;;;5030403;28;20147;-68
2024/01/12 00:29:11;;;;;;;70.57;21.80;;;;;;;;;;5028636;28;20021;-68
2024/01/12 00:31:36;;;;;;;60.88;21.50;;;;;;;;;;5029820;28;20055;-68
2024/01/12 00:34:02;;;;;;;70.13;24.35;;;;;;;;;;5030284;28;20017;-68
2024/01/12 00:36:27;;;;;;;56.85;21.13;;;;;;;;;;5030598;28;20044;-68
2024/01/12 00:38:52;;;;;;;73.68;23.85;;;;;;;;;;5032820;28;20043;-69
2024/01/12 00:41:17;;;;;;;57.40;22.20;;;;;;;;;;5029401;28;20087;-68
2024/01/12 00:43:42;;;;;;;58.67;22.73;;;;;;;;;;5029230;28;20491;-68
2024/01/12 00:46:07;;;;;;;73.32;23.48;;;;;;;;;;5030072;28;20474;-68
2024/01/12 00:48:33;;;;;;;63.13;24.88;;;;;;;;;;5034625;28;20045;-68
2024/01/12 00:50:58;;;;;;;63.97;25.45;;;;;;;;;;5034381;28;20045;-68
2024/01/12 00:53:23;;;;;;;71.05;24.20;;;;;;;;;;5034700;28;20112;-68
2024/01/12 00:55:48;;;;;;;68.03;23.95;;;;;;;;;;5029926;28;20036;-68
2024/01/12 00:58:13;;;;;;;60.22;22.27;;;;;;;;;;5029735;28;20021;-68
2024/01/12 01:00:39;;;;;;;63.13;23.65;;;;;;;;;;5028905;28;20029;-68
2024/01/12 01:03:06;;;;;;;63.70;23.15;;;;;;;;;;5031867;28;20032;-68
2024/01/12 01:05:31;;;;;;;75.03;27.15;;;;;;;;;;5031314;28;20410;-68
2024/01/12 01:07:56;;;;;;;78.47;23.92;;;;;;;;;;5030318;28;20017;-68
2024/01/12 01:10:21;;;;;;;62.30;22.77;;;;;;;;;;5030611;28;20026;-68
2024/01/12 01:12:46;;;;;;;68.33;24.27;;;;;;;;;;5029972;28;20040;-68
2024/01/12 01:15:14;;;;;;;75.93;27.00;;;;;;;;;;5029439;28;20288;-68
2024/01/12 01:17:39;;;;;;;78.70;27.60;;;;;;;;;;5030773;28;20060;-68
2024/01/12 01:20:05;;;;;;;67.20;24.33;;;;;;;;;;5029523;28;20069;-68
2024/01/12 01:22:33;;;;;;;72.00;24.67;;;;;;;;;;5029797;28;20029;-68
2024/01/12 01:24:58;;;;;;;72.88;24.48;;;;;;;;;;5029907;28;20512;-68
2024/01/12 01:27:23;;;;;;;74.55;25.27;;;;;;;;;;5027515;28;20061;-68
2024/01/12 01:29:49;;;;;;;65.70;25.17;;;;;;;;;;5030511;28;20017;-68
2024/01/12 01:32:14;;;;;;;77.00;27.37;;;;;;;;;;5029290;28;20419;-68
2024/01/12 01:34:39;;;;;;;69.15;24.80;;;;;;;;;;5030365;28;20291;-68
2024/01/12 01:37:04;;;;;;;68.67;25.23;;;;;;;;;;5034870;28;20044;-68
2024/01/12 01:39:30;;;;;;;80.22;24.83;;;;;;;;;;5035079;28;20260;-68
2024/01/12 01:41:56;;;;;;;85.63;26.13;;;;;;;;;;5035308;28;20036;-68
2024/01/12 01:44:21;;;;;;;69.20;25.48;;;;;;;;;;5028380;28;20017;-68
2024/01/12 01:46:46;;;;;;;64.93;25.73;;;;;;;;;;5028979;28;20105;-68
2024/01/12 01:49:11;;;;;;;72.65;28.13;;;;;;;;;;5030235;28;20416;-68
2024/01/12 01:51:37;;;;;;;79.80;26.20;;;;;;;;;;5030728;28;20089;-68
2024/01/12 01:54:02;;;;;;;79.03;26.60;;;;;;;;;;5029882;28;20025;-68
2024/01/12 01:56:27;;;;;;;80.97;27.17;;;;;;;;;;5029139;28;20446;-68
2024/01/12 01:58:52;;;;;;;94.30;28.23;;;;;;;;;;5033686;28;20025;-68
2024/01/12 02:01:19;;;;;;;78.38;26.73;;;;;;;;;;5027865;28;20056;-68
2024/01/12 02:03:44;;;;;;;82.38;29.27;;;;;;;;;;5033585;28;20029;-68
2024/01/12 02:06:10;;;;;;;77.07;26.23;;;;;;;;;;5034257;28;20067;-68
2024/01/12 02:08:36;;;;;;;75.78;27.88;;;;;;;;;;5035796;28;20235;-68
2024/01/12 02:11:01;;;;;;;68.88;25.92;;;;;;;;;;5029798;28;20056;-68
2024/01/12 02:13:26;;;;;;;72.72;25.77;;;;;;;;;;5035827;28;20018;-68
2024/01/12 02:15:51;;;;;;;77.03;26.85;;;;;;;;;;5033350;28;20072;-68
2024/01/12 02:18:17;;;;;;;81.45;28.33;;;;;;;;;;5040032;28;20112;-68
2024/01/12 02:20:44;;;;;;;70.43;25.60;;;;;;;;;;5032527;28;20112;-68
2024/01/12 02:23:09;;;;;;;80.80;27.48;;;;;;;;;;5033253;28;20045;-68
2024/01/12 02:25:34;;;;;;;73.03;25.67;;;;;;;;;;5032691;28;20029;-68
2024/01/12 02:27:59;;;;;;;82.72;27.55;;;;;;;;;;5032609;28;20395;-68
2024/01/12 02:30:25;;;;;;;73.20;25.50;;;;;;;;;;5028100;28;20515;-68
2024/01/12 02:32:50;;;;;;;90.65;28.95;;;;;;;;;;5033200;28;20112;-69
2024/01/12 02:35:15;;;;;;;77.20;27.48;;;;;;;;;;5032334;28;20022;-68
2024/01/12 02:37:40;;;;;;;73.03;27.55;;;;;;;;;;5032736;28;20025;-68
2024/01/12 02:40:06;;;;;;;78.68;28.48;;;;;;;;;;5030504;28;20067;-68
2024/01/12 02:42:31;;;;;;;81.63;27.73;;;;;;;;;;5032408;28;20029;-68
2024/01/12 02:44:56;;;;;;;90.78;29.38;;;;;;;;;;5032708;28;20029;-68
2024/01/12 02:47:22;;;;;;;99.37;30.27;;;;;;;;;;5036375;28;20373;-68
2024/01/12 02:49:47;;;;;;;78.05;28.88;;;;;;;;;;5034619;28;20280;-68
2024/01/12 02:52:12;;;;;;;77.03;27.40;;;;;;;;;;5031027;28;20139;-68
2024/01/12 02:54:37;;;;;;;81.25;28.23;;;;;;;;;;5031850;28;20068;-69
2024/01/12 02:57:02;;;;;;;85.65;28.02;;;;;;;;;;5029684;28;20032;-68
2024/01/12 02:59:28;;;;;;;77.78;26.80;;;;;;;;;;5032825;28;20032;-68
2024/01/12 03:01:53;;;;;;;81.10;29.60;;;;;;;;;;5037539;28;20025;-68
2024/01/12 03:04:18;;;;;;;88.70;28.30;;;;;;;;;;5035580;28;20410;-68
2024/01/12 03:06:43;;;;;;;81.40;28.45;;;;;;;;;;5031537;28;20033;-68
2024/01/12 03:09:08;;;;;;;74.78;27.95;;;;;;;;;;5031444;28;20028;-69
2024/01/12 03:11:34;;;;;;;80.50;28.55;;;;;;;;;;5027182;28;20022;-68
2024/01/12 03:13:59;;;;;;;79.63;28.58;;;;;;;;;;5030485;28;20029;-68
2024/01/12 03:16:24;;;;;;;83.75;27.92;;;;;;;;;;5031813;28;20457;-68
2024/01/12 03:18:49;;;;;;;88.97;29.50;;;;;;;;;;5031934;28;20064;-68
2024/01/12 03:21:16;;;;;;;83.90;29.70;;;;;;;;;;5031049;28;20131;-68
2024/01/12 03:23:41;;;;;;;95.25;31.10;;;;;;;;;;5030717;28;20017;-68
2024/01/12 03:26:06;;;;;;;81.28;30.35;;;;;;;;;;5035477;28;20460;-69
2024/01/12 03:28:32;;;;;;;81.82;29.92;;;;;;;;;;5033063;28;20476;-68
2024/01/12 03:30:57;;;;;;;85.75;32.13;;;;;;;;;;5031583;28;20029;-68
2024/01/12 03:33:22;;;;;;;91.30;30.37;;;;;;;;;;5029446;28;20033;-68
2024/01/12 03:35:48;;;;;;;90.78;30.65;;;;;;;;;;5032568;28;20754;-68
2024/01/12 03:38:13;;;;;;;100.75;32.08;;;;;;;;;;5032164;28;20052;-68
2024/01/12 03:40:38;;;;;;;86.07;28.83;;;;;;;;;;5030751;28;20029;-68
2024/01/12 03:43:03;;;;;;;99.95;31.17;;;;;;;;;;5036481;28;20105;-69
2024/01/12 03:45:29;;;;;;;92.20;29.85;;;;;;;;;;5038711;28;20017;-68
2024/01/12 03:47:54;;;;;;;81.68;29.77;;;;;;;;;;5037773;28;20045;-68
2024/01/12 03:50:19;;;;;;;95.70;29.40;;;;;;;;;;5029505;28;20039;-68
2024/01/12 03:52:44;;;;;;;90.70;29.83;;;;;;;;;;5030823;28;20052;-68
2024/01/12 03:55:09;;;;;;;95.35;31.40;;;;;;;;;;5026782;28;20311;-68
2024/01/12 03:57:34;;;;;;;88.63;28.13;;;;;;;;;;5036098;28;20017;-69
2024/01/12 04:00:00;;;;;;;87.10;31.35;;;;;;;;;;5033495;28;20037;-69
2024/01/12 04:02:25;;;;;;;101.15;32.97;;;;;;;;;;5030447;28;20025;-68
2024/01/12 04:04:50;;;;;;;105.85;33.42;;;;;;;;;;5028879;28;20028;-68
2024/01/12 04:07:17;;;;;;;96.60;32.83;;;;;;;;;;5029505;28;20021;-68
2024/01/12 04:09:43;;;;;;;114.10;33.83;;;;;;;;;;5032981;28;20339;-68
2024/01/12 04:12:08;;;;;;;100.00;31.25;;;;;;;;;;5030231;28;20117;-68
2024/01/12 04:14:34;;;;;;;108.40;33.30;;;;;;;;;;5030119;28;20032;-68
2024/01/12 04:16:59;;;;;;;101.75;33.08;;;;;;;;;;5032166;28;20037;-69
2024/01/12 04:19:24;;;;;;;107.72;33.30;;;;;;;;;;5030295;28;20348;-68
2024/01/12 04:21:49;;;;;;;122.82;34.00;;;;;;;;;;5031786;28;20033;-68
2024/01/12 04:24:14;;;;;;;125.63;34.00;;;;;;;;;;5029451;28;20029;-69
2024/01/12 04:26:39;;;;;;;118.25;32.92;;;;;;;;;;5033718;28;20455;-68
2024/01/12 04:29:05;;;;;;;116.97;32.13;;;;;;;;;;5029072;28;20029;-68
2024/01/12 04:31:30;;;;;;;117.97;34.45;;;;;;;;;;5031556;28;20072;-69
2024/01/12 04:33:55;;;;;;;116.28;33.53;;;;;;;;;;5029026;28;20037;-69
2024/01/12 04:36:22;;;;;;;125.03;33.67;;;;;;;;;;5029927;28;20112;-69
2024/01/12 04:38:47;;;;;;;125.47;34.53;;;;;;;;;;5031326;28;20109;-69
2024/01/12 04:41:13;;;;;;;127.70;35.10;;;;;;;;;;5032721;28;20111;-68
2024/01/12 04:43:38;;;;;;;130.90;34.05;;;;;;;;;;5030490;28;20039;-68
2024/01/12 04:46:03;;;;;;;133.07;34.33;;;;;;;;;;5029224;28;20030;-68
2024/01/12 04:48:28;;;;;;;139.48;35.83;;;;;;;;;;5030432;28;20053;-68
2024/01/12 04:50:54;;;;;;;130.97;35.73;;;;;;;;;;5033603;28;20036;-69
2024/01/12 04:53:19;;;;;;;129.17;35.43;;;;;;;;;;5034178;28;20786;-68
2024/01/12 04:55:44;;;;;;;130.32;34.28;;;;;;;;;;5029573;28;20280;-68
2024/01/12 04:58:09;;;;;;;130.20;34.72;;;;;;;;;;5033692;28;20116;-68
2024/01/12 05:00:34;;;;;;;131.88;33.38;;;;;;;;;;5033497;28;20108;-68
2024/01/12 05:02:59;;;;;;;124.88;33.65;;;;;;;;;;5032073;28;20083;-69
2024/01/12 05:05:25;;;;;;;124.88;36.05;;;;;;;;;;5029323;28;20123;-68
2024/01/12 05:07:50;;;;;;;135.50;36.60;;;;;;;;;;5030303;28;20029;-69
2024/01/12 05:10:15;;;;;;;134.25;34.75;;;;;;;;;;5032791;28;20473;-68
2024/01/12 05:12:40;;;;;;;137.82;33.70;;;;;;;;;;5029732;28;20033;-68
2024/01/12 05:15:06;;;;;;;130.30;34.03;;;;;;;;;;5032828;28;20049;-69
2024/01/12 05:17:31;;;;;;;126.00;32.38;;;;;;;;;;5039855;28;20393;-69
2024/01/12 05:19:58;;;;;;;123.63;34.10;;;;;;;;;;5031891;28;20020;-69
2024/01/12 05:22:23;;;;;;;137.25;34.95;;;;;;;;;;5028180;28;20039;-68
2024/01/12 05:24:49;;;;;;;130.88;33.08;;;;;;;;;;5034222;28;20375;-68
2024/01/12 05:27:14;;;;;;;127.97;36.35;;;;;;;;;;5029442;28;20017;-69
2024/01/12 05:29:39;;;;;;;131.95;36.38;;;;;;;;;;5030066;28;20033;-69
2024/01/12 05:32:04;;;;;;;123.63;33.67;;;;;;;;;;5028717;28;20407;-69
2024/01/12 05:34:30;;;;;;;114.30;33.05;;;;;;;;;;5029758;28;20025;-69
2024/01/12 05:36:55;;;;;;;132.75;36.05;;;;;;;;;;5029062;28;20026;-69
2024/01/12 05:39:20;;;;;;;137.57;35.15;;;;;;;;;;5030161;28;20025;-69
2024/01/12 05:41:45;;;;;;;160.07;35.85;;;;;;;;;;5034965;28;20515;-69
2024/01/12 05:44:11;;;;;;;128.60;33.65;;;;;;;;;;5034881;28;20092;-68
2024/01/12 05:46:36;;;;;;;124.80;34.03;;;;;;;;;;5035894;28;20029;-69
2024/01/12 05:49:04;;;;;;;136.98;35.83;;;;;;;;;;5035823;28;20032;-68
2024/01/12 05:51:29;;;;;;;125.85;34.15;;;;;;;;;;5036346;28;20028;-69
2024/01/12 05:53:54;;;;;;;152.40;36.58;;;;;;;;;;5028546;28;20029;-68
2024/01/12 05:56:19;;;;;;;126.87;34.40;;;;;;;;;;5029523;28;20034;-68
2024/01/12 05:58:45;;;;;;;129.10;34.60;;;;;;;;;;5029123;28;20264;-68
2024/01/12 06:01:10;;;;;;;132.73;34.08;;;;;;;;;;5028671;28;20028;-69
2024/01/12 06:03:35;;;;;;;135.02;33.90;;;;;;;;;;5027797;28;20029;-68
2024/01/12 06:06:00;;;;;;;137.10;34.38;;;;;;;;;;5028970;28;20432;-68
2024/01/12 06:08:25;;;;;;;125.65;32.55;;;;;;;;;;5028861;28;20041;-68
2024/01/12 06:10:51;;;;;;;116.82;29.42;;;;;;;;;;5027969;28;20045;-69
2024/01/12 06:13:16;;;;;;;115.30;32.72;;;;;;;;;;5030433;28;20096;-69
2024/01/12 06:15:41;;;;;;;147.93;36.63;;;;;;;;;;5031829;28;20363;-69
2024/01/12 06:18:07;;;;;;;139.88;37.63;;;;;;;;;;5030147;28;20035;-68
2024/01/12 06:20:32;;;;;;;114.85;32.15;;;;;;;;;;5028806;28;20025;-69
2024/01/12 06:22:57;;;;;;;114.65;31.98;;;;;;;;;;5029786;28;20036;-68
2024/01/12 06:25:23;;;;;;;123.00;31.25;;;;;;;;;;5027955;28;20017;-69
2024/01/12 06:27:49;;;;;;;122.93;29.85;;;;;;;;;;5023769;28;20021;-68
2024/01/12 06:30:14;;;;;;;95.90;27.27;;;;;;;;;;5028652;28;20368;-68
2024/01/12 06:32:39;;;;;;;92.32;27.08;;;;;;;;;;5028727;28;20013;-69
2024/01/12 06:35:07;;;;;;;61.10;19.40;;;;;;;;;;5028255;28;20017;-68
2024/01/12 06:37:32;;;;;;;75.65;21.38;;;;;;;;;;5025226;28;20092;-68
2024/01/12 06:39:58;;;;;;;81.97;22.27;;;;;;;;;;5030283;28;20443;-69
2024/01/12 06:42:23;;;;;;;80.72;24.45;;;;;;;;;;5028642;28;20048;-68
2024/01/12 06:44:49;;;;;;;92.57;24.95;;;;;;;;;;5032996;28;20026;-68
2024/01/12 06:47:14;;;;;;;84.95;24.73;;;;;;;;;;5027427;28;20030;-68
2024/01/12 06:49:43;;;;;;;79.50;25.30;;;;;;;;;;5034890;28;20092;-68
2024/01/12 06:52:08;;;;;;;65.63;21.42;;;;;;;;;;5031650;28;20517;-69
2024/01/12 06:54:33;;;;;;;52.17;18.90;;;;;;;;;;5033641;28;20112;-68
2024/01/12 06:56:59;;;;;;;52.13;19.03;;;;;;;;;;5039981;28;20025;-69
2024/01/12 06:59:24;;;;;;;51.60;18.65;;;;;;;;;;5024642;28;20271;-68
2024/01/12 07:01:49;;;;;;;55.25;17.63;;;;;;;;;;5030977;28;20779;-68
2024/01/12 07:04:14;;;;;;;58.65;18.02;;;;;;;;;;5029779;28;20099;-68
2024/01/12 07:06:39;;;;;;;54.38;18.70;;;;;;;;;;5030736;28;20071;-68
2024/01/12 07:09:06;;;;;;;60.15;18.70;;;;;;;;;;5030139;28;20033;-68
2024/01/12 07:11:31;;;;;;;51.70;16.45;;;;;;;;;;5029255;28;20025;-69
2024/01/12 07:13:56;;;;;;;52.42;15.65;;;;;;;;;;5030805;28;20029;-69
2024/01/12 07:16:21;;;;;;;47.17;14.77;;;;;;;;;;5027072;28;20021;-68
2024/01/12 07:18:46;;;;;;;55.42;17.75;;;;;;;;;;5029399;28;20052;-69
2024/01/12 07:21:12;;;;;;;52.20;18.93;;;;;;;;;;5029581;28;20070;-69
2024/01/12 07:23:37;;;;;;;52.13;18.45;;;;;;;;;;5030041;28;20263;-68
2024/01/12 07:26:02;;;;;;;61.75;18.42;;;;;;;;;;5028740;28;20018;-68
2024/01/12 07:28:27;;;;;;;41.38;15.63;;;;;;;;;;5028224;28;20439;-68
2024/01/12 07:30:53;;;;;;;43.53;15.57;;;;;;;;;;5037754;28;20075;-68
2024/01/12 07:33:19;;;;;;;45.33;16.75;;;;;;;;;;5031791;28;20507;-68
2024/01/12 07:35:44;;;;;;;44.85;16.48;;;;;;;;;;5032685;28;20052;-68
2024/01/12 07:38:10;;;;;;;41.75;15.73;;;;;;;;;;5033992;28;20113;-68
2024/01/12 07:40:35;;;;;;;45.53;17.07;;;;;;;;;;5033438;28;20013;-69
2024/01/12 07:43:00;;;;;;;41.83;16.23;;;;;;;;;;5031670;28;20695;-68
2024/01/12 07:45:25;;;;;;;53.33;19.65;;;;;;;;;;5031690;28;20535;-68
2024/01/12 07:47:50;;;;;;;56.07;18.80;;;;;;;;;;5031137;28;20444;-68
2024/01/12 07:50:16;;;;;;;49.05;15.70;;;;;;;;;;5027832;28;20268;-69
2024/01/12 07:52:41;;;;;;;46.45;17.15;;;;;;;;;;5029560;28;20018;-68
2024/01/12 07:55:06;;;;;;;50.58;16.95;;;;;;;;;;5030975;28;20112;-68
2024/01/12 07:57:31;;;;;;;48.13;16.40;;;;;;;;;;5032781;28;20033;-68
2024/01/12 07:59:57;;;;;;;52.08;17.30;;;;;;;;;;5028859;28;20428;-69
2024/01/12 08:02:23;;;;;;;47.95;17.08;;;;;;;;;;5031251;28;20065;-68
2024/01/12 08:04:49;;;;;;;47.38;16.60;;;;;;;;;;5035318;28;20088;-68
2024/01/12 08:07:14;;;;;;;37.60;14.43;;;;;;;;;;5029873;28;20075;-69
2024/01/12 08:09:39;;;;;;;43.25;15.63;;;;;;;;;;5034888;28;20043;-68
2024/01/12 08:12:05;;;;;;;54.43;19.10;;;;;;;;;;5028731;28;20034;-68
2024/01/12 08:14:30;;;;;;;48.05;16.98;;;;;;;;;;5030535;28;20351;-68
2024/01/12 08:16:55;;;;;;;50.13;16.85;;;;;;;;;;5028922;28;20354;-68
2024/01/12 08:19:21;;;;;;;44.63;15.90;;;;;;;;;;5027092;28;20033;-69
2024/01/12 08:21:46;;;;;;;49.22;16.83;;;;;;;;;;5029619;28;20021;-68
2024/01/12 08:24:11;;;;;;;50.22;15.75;;;;;;;;;;5030227;28;20021;-68
2024/01/12 08:26:36;;;;;;;41.15;16.90;;;;;;;;;;5029824;28;20018;-68
2024/01/12 08:29:02;;;;;;;51.03;17.42;;;;;;;;;;5030043;28;20026;-69
2024/01/12 08:31:30;;;;;;;41.40;16.85;;;;;;;;;;5029338;28;20021;-68
2024/01/12 08:33:55;;;;;;;63.15;18.33;;;;;;;;;;5029419;28;20055;-68
2024/01/12 08:36:20;;;;;;;49.88;17.23;;;;;;;;;;5030444;28;20067;-69
2024/01/12 08:38:46;;;;;;;45.75;17.80;;;;;;;;;;5033989;28;20028;-69
2024/01/12 08:41:11;;;;;;;48.63;18.00;;;;;;;;;;5030645;28;20118;-69
2024/01/12 08:43:36;;;;;;;49.80;18.48;;;;;;;;;;5029596;28;20267;-68
2024/01/12 08:46:01;;;;;;;46.90;18.23;;;;;;;;;;5028727;28;20017;-69
2024/01/12 08:48:27;;;;;;;49.65;19.17;;;;;;;;;;5031395;28;20025;-69
2024/01/12 08:50:52;;;;;;;56.53;18.70;;;;;;;;;;5035060;28;20033;-69
2024/01/12 08:53:18;;;;;;;57.33;19.98;;;;;;;;;;5029581;28;20025;-69
2024/01/12 08:55:43;;;;;;;54.53;19.27;;;;;;;;;;5030119;28;20032;-69
2024/01/12 08:58:08;;;;;;;60.22;19.92;;;;;;;;;;5028493;28;20025;-69
2024/01/12 09:00:34;;;;;;;53.40;19.80;;;;;;;;;;5028489;28;20144;-69
2024/01/12 09:02:59;;;;;;;66.87;20.17;;;;;;;;;;5031864;28;20021;-69
2024/01/12 09:05:24;;;;;;;48.53;17.53;;;;;;;;;;5029569;28;20702;-69
2024/01/12 09:07:49;;;;;;;61.28;21.90;;;;;;;;;;5033141;28;20275;-69
2024/01/12 09:10:14;;;;;;;62.70;19.88;;;;;;;;;;5033654;28;20017;-69
2024/01/12 09:12:40;;;;;;;70.20;19.85;;;;;;;;;;5031463;28;20024;-69
2024/01/12 09:15:07;;;;;;;58.83;20.27;;;;;;;;;;5028603;28;20017;-69
2024/01/12 09:17:33;;;;;;;61.92;19.83;;;;;;;;;;5030043;28;20252;-69
2024/01/12 09:19:58;;;;;;;55.83;19.02;;;;;;;;;;5029129;28;20499;-69
2024/01/12 09:22:23;;;;;;;58.92;20.60;;;;;;;;;;5029579;28;20053;-69
2024/01/12 09:24:48;;;;;;;57.53;18.52;;;;;;;;;;5028911;28;20025;-69
2024/01/12 09:27:13;;;;;;;64.88;19.73;;;;;;;;;;5027518;28;20032;-69
2024/01/12 09:29:39;;;;;;;56.53;18.30;;;;;;;;;;5027682;28;20063;-69
2024/01/12 09:32:04;;;;;;;59.17;19.20;;;;;;;;;;5029224;28;20025;-69
2024/01/12 09:34:29;;;;;;;56.53;19.17;;;;;;;;;;5028857;28;20021;-69
2024/01/12 09:36:54;;;;;;;61.90;18.75;;;;;;;;;;5028867;28;20384;-69
2024/01/12 09:39:20;;;;;;;53.95;18.60;;;;;;;;;;5033067;28;20029;-69
2024/01/12 09:41:46;;;;;;;53.40;16.57;;;;;;;;;;5039572;28;20036;-69
2024/01/12 09:44:11;;;;;;;53.45;20.25;;;;;;;;;;5031565;28;20290;-69
2024/01/12 09:46:40;;;;;;;52.42;19.88;;;;;;;;;;5029036;28;20072;-69
2024/01/12 09:49:05;;;;;;;55.28;17.50;;;;;;;;;;5028730;28;20025;-69
2024/01/12 09:51:31;;;;;;;52.03;20.42;;;;;;;;;;5029721;28;20037;-69
2024/01/12 09:53:56;;;;;;;50.40;17.30;;;;;;;;;;5032023;28;20548;-69
2024/01/12 09:56:22;;;;;;;48.03;16.88;;;;;;;;;;5030155;28;20021;-69
2024/01/12 09:58:47;;;;;;;63.03;18.63;;;;;;;;;;5029629;28;20029;-69
2024/01/12 10:01:13;;;;;;;54.03;19.48;;;;;;;;;;5027643;28;20029;-69
2024/01/12 10:03:39;;;;;;;49.85;18.15;;;;;;;;;;5028697;28;20022;-70
2024/01/12 10:06:04;;;;;;;43.38;16.90;;;;;;;;;;5027946;28;20017;-69
2024/01/12 10:08:40;;;;;;;50.70;16.88;;;;;;;;;;5028837;28;20028;-70
2024/01/12 10:11:05;;;;;;;51.70;18.55;;;;;;;;;;5031669;28;20028;-69
2024/01/12 10:13:30;;;;;;;48.60;18.17;;;;;;;;;;5031092;28;20112;-70
2024/01/12 10:15:56;;;;;;;62.47;20.52;;;;;;;;;;5026209;28;20418;-69
2024/01/12 10:18:22;;;;;;;64.15;19.80;;;;;;;;;;5027440;28;20028;-70
2024/01/12 10:20:48;;;;;;;47.40;17.20;;;;;;;;;;5030283;28;20041;-69
2024/01/12 10:23:18;;;;;;;57.97;18.95;;;;;;;;;;5030795;28;20116;-69
2024/01/12 10:25:44;;;;;;;53.05;17.55;;;;;;;;;;5035640;28;20031;-69
2024/01/12 10:28:16;;;;;;;53.95;16.30;;;;;;;;;;5031614;28;20368;-70
2024/01/12 10:30:42;;;;;;;53.28;15.95;;;;;;;;;;5030507;28;20455;-69
2024/01/12 10:33:07;;;;;;;50.15;18.13;;;;;;;;;;5030388;28;20423;-69
2024/01/12 10:35:32;;;;;;;57.80;18.70;;;;;;;;;;5032029;28;20040;-69
2024/01/12 10:38:00;;;;;;;48.45;17.67;;;;;;;;;;5030994;28;20272;-69
2024/01/12 10:40:26;;;;;;;54.90;18.58;;;;;;;;;;5031291;28;20107;-69
2024/01/12 10:42:55;;;;;;;41.40;16.38;;;;;;;;;;5033289;28;20365;-70
2024/01/12 10:45:25;;;;;;;56.53;20.25;;;;;;;;;;5036012;28;20124;-70
2024/01/12 10:48:03;;;;;;;64.38;19.67;;;;;;;;;;5031943;28;20032;-70
2024/01/12 10:50:32;;;;;;;61.92;20.40;;;;;;;;;;5028624;28;20109;-69
2024/01/12 10:53:04;;;;;;;59.87;20.77;;;;;;;;;;5032424;28;20116;-69
2024/01/12 10:55:32;;;;;;;54.05;20.38;;;;;;;;;;5034689;28;20280;-69
2024/01/12 10:57:57;;;;;;;51.80;19.10;;;;;;;;;;5030716;28;20083;-69
2024/01/12 11:00:24;;;;;;;61.47;19.77;;;;;;;;;;5030521;28;20022;-69
2024/01/12 11:02:50;;;;;;;56.47;18.67;;;;;;;;;;5034402;28;20024;-69
2024/01/12 11:05:15;;;;;;;47.35;19.02;;;;;;;;;;5034113;28;20029;-69
2024/01/12 11:07:42;;;;;;;58.85;18.58;;;;;;;;;;5031830;28;20539;-69
2024/01/12 11:10:07;;;;;;;41.30;16.92;;;;;;;;;;5032643;28;20017;-69
2024/01/12 11:12:36;;;;;;;51.53;18.67;;;;;;;;;;5031150;28;20155;-69
2024/01/12 11:15:02;;;;;;;47.35;18.23;;;;;;;;;;5033076;28;20020;-70
2024/01/12 11:17:31;;;;;;;55.10;20.35;;;;;;;;;;5031065;28;20381;-69
2024/01/12 11:20:10;;;;;;;55.38;19.30;;;;;;;;;;5030580;28;20056;-69
2024/01/12 11:22:36;;;;;;;50.78;18.60;;;;;;;;;;5031909;28;20392;-69
2024/01/12 11:25:01;;;;;;;51.83;19.02;;;;;;;;;;5029041;28;20017;-69
2024/01/12 11:27:33;;;;;;;43.05;15.45;;;;;;;;;;5030687;28;20044;-69
2024/01/12 11:29:59;;;;;;;47.75;17.27;;;;;;;;;;5029786;28;20108;-69
2024/01/12 11:32:24;;;;;;;53.88;19.00;;;;;;;;;;5031239;28;20018;-69
2024/01/12 11:34:49;;;;;;;51.42;18.45;;;;;;;;;;5030432;28;20761;-69
2024/01/12 11:37:14;;;;;;;40.20;15.10;;;;;;;;;;5036649;28;20029;-70
2024/01/12 11:39:41;;;;;;;47.45;16.17;;;;;;;;;;5033902;28;20115;-69
2024/01/12 11:42:06;;;;;;;53.50;19.38;;;;;;;;;;5034742;28;20415;-69
2024/01/12 11:44:32;;;;;;;55.13;17.67;;;;;;;;;;5033254;28;20016;-70
2024/01/12 11:46:58;;;;;;;50.70;17.40;;;;;;;;;;5026944;28;20049;-68
2024/01/12 11:49:23;;;;;;;48.80;16.90;;;;;;;;;;5029756;28;20013;-68
2024/01/12 11:51:49;;;;;;;50.40;17.30;;;;;;;;;;5029315;28;20036;-68
2024/01/12 11:54:14;;;;;;;51.42;17.38;;;;;;;;;;5030764;28;20574;-68
2024/01/12 11:56:40;;;;;;;50.83;17.80;;;;;;;;;;5030331;28;20032;-68
2024/01/12 11:59:05;;;;;;;49.28;17.92;;;;;;;;;;5029257;28;20128;-68
2024/01/12 12:01:31;;;;;;;51.38;17.60;;;;;;;;;;5030476;28;20034;-68
2024/01/12 12:03:56;;;;;;;59.33;18.17;;;;;;;;;;5030310;28;20367;-68
2024/01/12 12:06:21;;;;;;;58.92;18.55;;;;;;;;;;5030312;28;20021;-68
2024/01/12 12:08:47;;;;;;;61.03;19.27;;;;;;;;;;5029396;28;20551;-68
2024/01/12 12:11:15;;;;;;;61.25;19.92;;;;;;;;;;5030030;28;20107;-68
2024/01/12 12:13:41;;;;;;;63.40;21.35;;;;;;;;;;5030032;28;20092;-68
2024/01/12 12:16:07;;;;;;;71.85;21.33;;;;;;;;;;5030222;28;20022;-68
2024/01/12 12:18:33;;;;;;;68.88;22.15;;;;;;;;;;5024076;28;20511;-68
2024/01/12 12:21:01;;;;;;;63.38;20.23;;;;;;;;;;5030002;28;20108;-68
2024/01/12 12:23:27;;;;;;;65.40;21.02;;;;;;;;;;5027652;28;20025;-68
2024/01/12 12:25:54;;;;;;;60.97;19.10;;;;;;;;;;5029907;28;20041;-68
2024/01/12 12:28:19;;;;;;;69.88;21.70;;;;;;;;;;5029386;28;20022;-69
2024/01/12 12:30:44;;;;;;;57.35;19.33;;;;;;;;;;5029485;28;20056;-68
2024/01/12 12:33:10;;;;;;;81.60;22.00;;;;;;;;;;5028497;28;20033;-70
2024/01/12 12:35:35;;;;;;;76.38;23.13;;;;;;;;;;5028994;28;20026;-70
2024/01/12 12:38:01;;;;;;;57.03;19.48;;;;;;;;;;5029946;28;20037;-68
2024/01/12 12:40:26;;;;;;;48.83;15.52;;;;;;;;;;5028833;28;20018;-70
2024/01/12 12:42:51;;;;;;;92.68;27.95;;;;;;;;;;5029485;28;20132;-70
2024/01/12 12:45:17;;;;;;;105.55;28.45;;;;;;;;;;5028809;28;20108;-68
2024/01/12 12:47:43;;;;;;;98.97;28.67;;;;;;;;;;5029351;28;20014;-68
2024/01/12 12:50:09;;;;;;;87.15;24.45;;;;;;;;;;5027992;28;20473;-68
2024/01/12 12:52:35;;;;;;;80.75;24.50;;;;;;;;;;5029999;28;20025;-68
2024/01/12 12:55:00;;;;;;;68.72;22.23;;;;;;;;;;5031916;28;20042;-68
2024/01/12 12:57:25;;;;;;;78.28;22.58;;;;;;;;;;5029871;28;20021;-68
2024/01/12 12:59:51;;;;;;;82.20;24.42;;;;;;;;;;5032481;28;20502;-68
2024/01/12 13:02:16;;;;;;;72.97;23.52;;;;;;;;;;5028984;28;20025;-68
2024/01/12 13:04:41;;;;;;;73.55;24.23;;;;;;;;;;5029686;28;20056;-68
2024/01/12 13:07:07;;;;;;;80.47;22.70;;;;;;;;;;5031883;28;20443;-68
2024/01/12 13:09:32;;;;;;;92.60;27.48;;;;;;;;;;5032125;28;20045;-67
2024/01/12 13:12:03;;;;;;;92.50;27.52;;;;;;;;;;5031206;28;20472;-68
2024/01/12 13:14:28;;;;;;;79.40;23.98;;;;;;;;;;5027215;28;20376;-68
2024/01/12 13:16:53;;;;;;;86.10;25.65;;;;;;;;;;5030408;28;20029;-68
2024/01/12 13:19:18;;;;;;;104.93;29.60;;;;;;;;;;5029634;28;20547;-69
2024/01/12 13:21:44;;;;;;;88.77;27.43;;;;;;;;;;5028678;28;20075;-68
2024/01/12 13:24:09;;;;;;;89.70;24.10;;;;;;;;;;5029325;28;20577;-68
2024/01/12 13:26:34;;;;;;;96.63;27.45;;;;;;;;;;5028778;28;20460;-69
2024/01/12 13:29:02;;;;;;;86.65;27.90;;;;;;;;;;5027979;28;20112;-70
2024/01/12 13:31:27;;;;;;;82.72;24.48;;;;;;;;;;5010340;28;20021;-70
2024/01/12 13:33:53;;;;;;;44.97;14.88;;;;;;;;;;5029078;28;20021;-69
2024/01/12 13:36:18;;;;;;;77.22;22.35;;;;;;;;;;5028676;28;20500;-68
2024/01/12 13:38:43;;;;;;;102.47;27.42;;;;;;;;;;5027884;28;20100;-69
2024/01/12 13:41:09;;;;;;;102.53;30.63;;;;;;;;;;5027773;28;20032;-68
2024/01/12 13:43:34;;;;;;;122.38;30.35;;;;;;;;;;5026851;28;20380;-69
2024/01/12 13:46:03;;;;;;;100.85;30.63;;;;;;;;;;5029235;28;20014;-69
2024/01/12 13:48:29;;;;;;;107.35;29.75;;;;;;;;;;5026422;28;20022;-69
2024/01/12 13:50:55;;;;;;;107.10;27.20;;;;;;;;;;5029370;28;20025;-69
2024/01/12 13:53:20;;;;;;;99.75;27.52;;;;;;;;;;5028711;28;20110;-69
2024/01/12 13:55:45;;;;;;;97.95;28.10;;;;;;;;;;5027970;28;20049;-69
2024/01/12 13:58:11;;;;;;;112.32;30.00;;;;;;;;;;5032164;28;20056;-69
2024/01/12 14:00:36;;;;;;;99.43;28.73;;;;;;;;;;5030620;28;20064;-69
2024/01/12 14:03:01;;;;;;;105.95;26.90;;;;;;;;;;5033069;28;20056;-69